Flight Track Log - Related Links

Times and Time Zones

All times are in EDT time to prevent confusion due to time zone crossing. See the CTL13 flight status page for this flight to view local times or setup timezone preferences in your user account.

Time Position Orientation Groundspeed Altitude Reporting Facility
EDT Latitude Longitude Course Direction KTS km/h meters Rate Location/Type
Fri 21:02:56 39.9000 -86.2833 360° North 140 259 762  Level Indianapolis TRACON
Fri 21:03:56 39.9167 -86.3167 303° West 127 235 1,036 244 Climbing Indianapolis TRACON
Fri 21:04:56 39.9500 -86.3500 323° Northwest 130 241 1,250 91 Climbing Indianapolis TRACON
Fri 21:05:56 39.9833 -86.3833 323° Northwest 160 296 1,219 -15 Descending Indianapolis TRACON
Fri 21:06:56 40.0167 -86.4167 323° Northwest 154 285 1,219  Level Indianapolis TRACON
Fri 21:07:56 40.0500 -86.4667 311° West 149 275 1,219  Level Indianapolis TRACON
Fri 21:08:56 40.0833 -86.5000 323° Northwest 148 274 1,219  Level Indianapolis TRACON
Fri 21:09:56 40.1167 -86.5333 323° Northwest 148 274 1,219 -8 Level Indianapolis TRACON
Fri 21:11:00 40.1407 -86.5813 303° West  Level FlightAware Approximate
Fri 21:12:41 40.1947 -86.6333 320° Northwest 149 275 1,189  Level Chicago Center
Fri 21:13:42 40.2228 -86.6675 317° Northwest 149 275 1,189  Level Chicago Center
Fri 21:14:42 40.2547 -86.7050 318° Northwest 148 274 1,189 -15 Level Chicago Center
Fri 21:15:43 40.2867 -86.7425 318° Northwest 146 270 1,158  Descending Chicago Center
Fri 21:16:44 40.3189 -86.7744 323° Northwest 148 274 1,189 15 Climbing Chicago Center
Fri 21:17:44 40.3489 -86.8119 316° Northwest 145 269 1,189  Level Chicago Center
Fri 21:18:00 40.3493 -86.8470 320° Northwest  Level FlightAware Approximate
Fri 21:18:45 40.3789 -86.8467 319° Northwest 145 269 1,189  Level Chicago Center
Fri 21:19:15 40.3914 -86.8581 325° Northwest 155 286 1,219  Climbing Chicago Center
Fri 21:19:45 40.4086 -86.8842 311° West 147 272 1,189  Descending Chicago Center
Fri 21:20:17 40.4153 -86.9031 295° West 155 286 1,219  Climbing Chicago Center
Fri 21:20:46 40.4386 -86.9189 333° Northwest 146 270 1,189  Descending Chicago Center
Fri 21:21:18 40.4575 -86.9383 322° Northwest 138 256 1,219  Climbing Chicago Center
Fri 21:21:47 40.4706 -86.9564 314° West 149 275 1,189 30 Descending Chicago Center
Fri 21:22:20 40.4872 -86.9747 320° Northwest 144 267 1,250  Climbing Chicago Center
Fri 21:22:47 40.4983 -86.9939 307° West 146 270 1,189 -30 Descending Chicago Center
Fri 21:23:22 40.5164 -87.0108 324° Northwest 145 269 1,219 19 Climbing Chicago Center
Fri 21:24:23 40.5431 -87.0492 312° West 143 266 1,219 15 Level Chicago Center
Fri 21:25:25 40.5742 -87.0814 322° Northwest 143 266 1,250  Climbing Chicago Center
Fri 21:26:26 40.6139 -87.1006 340° North 145 269 1,219 -15 Descending Chicago Center
Fri 21:27:28 40.6536 -87.1186 341° North 149 275 1,219 15 Level Chicago Center
Fri 21:28:30 40.7003 -87.1433 338° Northwest 150 278 1,250 15 Climbing Chicago Center
Fri 21:29:31 40.7375 -87.1639 337° Northwest 149 275 1,250 -15 Level Chicago Center
Fri 21:30:33 40.7758 -87.1847 338° Northwest 149 275 1,219 -15 Descending Chicago Center
Fri 21:31:35 40.8142 -87.2044 339° North 149 275 1,219  Level Chicago Center
Fri 21:32:36 40.8522 -87.2233 339° North 147 272 1,219  Level Chicago Center
Fri 21:33:38 40.8900 -87.2444 337° Northwest 147 272 1,219  Level Chicago Center
Fri 21:34:40 40.9353 -87.2683 338° Northwest 147 272 1,219  Level Chicago Center
Fri 21:35:42 40.9736 -87.2892 338° Northwest 148 274 1,219 -15 Level Chicago Center
Fri 21:36:43 41.0122 -87.3106 337° Northwest 150 278 1,189 -30 Descending Chicago Center
Fri 21:37:45 41.0517 -87.3308 339° North 151 280 1,158  Descending Chicago Center
Fri 21:38:47 41.0906 -87.3503 339° North 151 280 1,189 15 Climbing Chicago Center
Fri 21:39:48 41.1286 -87.3731 336° Northwest 151 280 1,189  Level Chicago Center
Fri 21:40:50 41.1681 -87.3936 339° North 152 282 1,189  Level Chicago Center
Fri 21:41:52 41.2128 -87.4194 337° Northwest 150 278 1,189  Level Chicago Center
Fri 21:42:53 41.2506 -87.4381 340° North 148 274 1,189  Level Chicago Center
Fri 21:43:55 41.2892 -87.4583 338° Northwest 148 274 1,189  Level Chicago Center
Fri 21:44:57 41.3258 -87.4794 337° Northwest 147 272 1,189  Level Chicago Center
Fri 21:45:58 41.3656 -87.4914 347° North 151 280 1,189  Level Chicago Center
Fri 21:47:00 41.4094 -87.4972 354° North 157 291 1,189 -89 Level Chicago Center
Fri 21:48:01 41.4639 -87.5067 353° North 161 298 1,006 -149 Descending Chicago Center
Fri 21:49:03 41.5097 -87.5158 351° North 165 306 884 -59 Descending Chicago Center
Fri 21:50:05 41.5542 -87.5244 352° North 165 306 884 15 Level Chicago Center
Fri 21:51:06 41.5972 -87.5319 353° North 162 299 914 15 Climbing Chicago Center
Fri 21:52:08 41.6372 -87.5489 342° North 155 286 914 -15 Level Chicago Center
Fri 21:53:09 41.6656 -87.5872 315° West 150 278 884 -89 Descending Chicago Center
Fri 21:54:11 41.7008 -87.6347 315° West 149 275 732 -104 Descending Chicago Center
Fri 21:54:37 41.7167 -87.6500 324° Northwest 135 249 732 -139 Level Chicago TRACON
Fri 21:55:43 41.7333 -87.7000 294° West 141 261 518 -198 Descending Chicago TRACON
Fri 21:56:37 41.7667 -87.7167 340° North 119 220 335 -203 Descending Chicago TRACON

Login

Don't have an account? Register now (free) for customized features, flight alerts, and more!